This is the latest recevied weather packets stored in our database for station/object WX7FGZ-5. If no packets are shown the sender has not sent any weather packets the latest 10 day(s).
| Time | Temp. | Humidity | Pressure | Rain* | Wind** | Luminosity | Snow |
|---|---|---|---|---|---|---|---|
| 1777390349 | 7.78° C | 38% | 1023.8 hPa | 0 mm | - | 545 W/m² | - |
| 1777390052 | 7.78° C | 37% | 1024 hPa | 0 mm | - | 592 W/m² | - |
| 1777389449 | 6.11° C | 45% | 1024 hPa | 0 mm | - | 533 W/m² | - |
| 1777388849 | 5° C | 52% | 1024.1 hPa | 0 mm | - | 506 W/m² | - |
| 1777387791 | 1.67° C | 63% | 1023.1 hPa | 0 mm | - | 424 W/m² | - |
| 1777387649 | 1.67° C | 63% | 1023.1 hPa | 0 mm | - | 424 W/m² | - |
| 1777387048 | 0.56° C | 66% | 1023.2 hPa | 0 mm | - | 385 W/m² | - |
| 1777386448 | 0° C | 70% | 1023.1 hPa | 0 mm | - | 346 W/m² | - |
| 1777386003 | -1.11° C | 71% | 1022.9 hPa | 0 mm | - | 302 W/m² | - |
| 1777385849 | -1.11° C | 71% | 1022.9 hPa | 0 mm | - | 302 W/m² | - |
| 1777385367 | -2.22° C | 74% | 1022.7 hPa | 0 mm | - | 272 W/m² | - |
| 1777385249 | -2.22° C | 74% | 1022.7 hPa | 0 mm | - | 272 W/m² | - |
| 1777384814 | -2.22° C | 73% | 1022.9 hPa | 0 mm | - | 232 W/m² | - |
| 1777384649 | -2.22° C | 73% | 1022.9 hPa | 0 mm | - | 232 W/m² | - |
| 1777384228 | -2.78° C | 75% | 1022.7 hPa | 0 mm | - | 192 W/m² | - |
| 1777384049 | -2.78° C | 75% | 1022.7 hPa | 0 mm | - | 192 W/m² | - |
| 1777382990 | -4.44° C | 76% | 1023 hPa | 0 mm | - | 107 W/m² | - |
| 1777382849 | -4.44° C | 76% | 1023 hPa | 0 mm | - | 107 W/m² | - |
| 1777382446 | -5° C | 76% | 1022.9 hPa | 0 mm | - | 81 W/m² | - |
| 1777382249 | -5° C | 76% | 1022.9 hPa | 0 mm | - | 81 W/m² | - |
| 1777381820 | -5° C | 77% | 1022.6 hPa | 0 mm | - | 49 W/m² | - |
| 1777381649 | -5° C | 77% | 1022.6 hPa | 0 mm | - | 49 W/m² | - |
| 1777381255 | -5.56° C | 79% | 1022.5 hPa | 0 mm | - | 25 W/m² | - |
| 1777381115 | -5.56° C | 79% | 1022.5 hPa | 0 mm | - | 25 W/m² | - |
| 1777381048 | -5.56° C | 79% | 1022.5 hPa | 0 mm | - | 25 W/m² | - |
* Rain latest hour (hover to see other rain measurements)
** Current wind speed in m/s (hover to see current wind gust speed)